createdAt,value
2019-04-16T00:01:27.796Z,79.40
2019-04-16T00:04:16.251Z,77.99
2019-04-16T00:07:06.405Z,78.44
2019-04-16T00:09:54.858Z,79.62
2019-04-16T00:12:43.296Z,80.49
2019-04-16T00:17:52.180Z,81.40
2019-04-16T00:20:21.523Z,81.15
2019-04-16T00:23:09.964Z,79.85
2019-04-16T00:25:39.378Z,82.89
2019-04-16T00:28:08.706Z,83.83
2019-04-16T00:30:38.032Z,83.22
2019-04-16T00:33:26.710Z,85.28
2019-04-16T00:35:56.049Z,85.11
2019-04-16T00:38:25.374Z,86.68
2019-04-16T00:40:54.710Z,86.48
2019-04-16T00:43:24.049Z,87.75
2019-04-16T00:45:53.376Z,86.37
2019-04-16T00:48:22.705Z,87.04
2019-04-16T00:50:52.031Z,87.46
2019-04-16T00:53:21.369Z,88.46
2019-04-16T00:55:50.696Z,88.95
2019-04-16T00:58:20.380Z,88.93
2019-04-16T01:01:10.231Z,89.42
2019-04-16T01:03:39.566Z,89.52
2019-04-16T01:06:08.996Z,90.51
2019-04-16T01:08:38.299Z,91.00
2019-04-16T01:11:07.629Z,90.98
2019-04-16T01:13:36.969Z,89.64
2019-04-16T01:16:06.304Z,90.14
2019-04-16T01:18:38.480Z,90.99
2019-04-16T01:21:25.746Z,92.13
2019-04-16T01:23:55.080Z,92.09
2019-04-16T01:26:26.890Z,90.66
2019-04-16T01:29:19.763Z,90.09
2019-04-16T01:32:11.384Z,89.86
2019-04-16T01:35:19.121Z,90.42
2019-04-16T01:38:13.184Z,88.68
2019-04-16T01:41:01.881Z,89.25
2019-04-16T01:43:31.208Z,90.50
2019-04-16T01:46:02.146Z,89.02
2019-04-16T01:48:40.902Z,89.18
2019-04-16T01:51:12.608Z,90.31
2019-04-16T01:54:00.459Z,89.84
2019-04-16T01:56:29.760Z,91.04
2019-04-16T01:58:59.379Z,92.48
2019-04-16T02:01:28.707Z,92.04
2019-04-16T02:03:58.039Z,92.96
2019-04-16T02:06:27.366Z,91.08
2019-04-16T02:09:01.862Z,90.97
2019-04-16T02:11:32.961Z,91.44
2019-04-16T02:14:02.364Z,90.71
2019-04-16T02:16:31.698Z,91.31
2019-04-16T02:19:02.325Z,92.29
2019-04-16T02:21:51.157Z,93.57
2019-04-16T02:24:20.500Z,91.97
2019-04-16T02:26:54.596Z,92.02
2019-04-16T02:29:29.806Z,93.56
2019-04-16T02:32:02.644Z,94.43
2019-04-16T02:34:31.993Z,93.64
2019-04-16T02:37:03.262Z,94.10
2019-04-16T02:39:49.687Z,94.55
2019-04-16T02:42:14.140Z,95.08
2019-04-16T02:44:48.666Z,94.18
2019-04-16T02:47:40.275Z,95.22
2019-04-16T02:56:06.145Z,98.28
2019-04-16T03:01:51.921Z,95.86
2019-04-16T03:07:22.752Z,97.33
2019-04-16T03:10:01.092Z,95.10
2019-04-16T03:15:52.846Z,96.29
2019-04-16T03:21:31.302Z,96.91
2019-04-16T03:24:00.635Z,97.13
2019-04-16T03:26:29.995Z,98.10
2019-04-16T03:28:59.577Z,99.80
2019-04-16T03:31:28.850Z,100.00
2019-04-16T03:33:58.435Z,100.00
2019-04-16T03:36:29.598Z,100.00
2019-04-16T03:42:07.245Z,99.65
2019-04-16T03:44:37.481Z,99.40
2019-04-16T03:47:26.717Z,97.98
2019-04-16T03:49:59.288Z,97.16
2019-04-16T03:52:47.839Z,97.87
2019-04-16T03:55:17.305Z,99.86
2019-04-16T03:58:07.199Z,100.00
2019-04-16T04:00:44.127Z,100.00
2019-04-16T04:03:25.841Z,100.00
2019-04-16T04:05:58.967Z,100.00
2019-04-16T04:08:28.309Z,100.00
2019-04-16T04:11:16.907Z,100.00
2019-04-16T04:13:49.706Z,100.00
2019-04-16T04:16:36.316Z,100.00
2019-04-16T04:19:06.039Z,100.00
2019-04-16T04:21:55.809Z,100.00
2019-04-16T04:24:25.150Z,100.00
2019-04-16T04:26:54.498Z,100.00
2019-04-16T04:29:24.887Z,100.00
2019-04-16T04:32:13.973Z,100.00
2019-04-16T04:34:45.504Z,100.00
2019-04-16T04:37:33.472Z,100.00
2019-04-16T04:40:02.811Z,100.00
2019-04-16T04:42:32.169Z,100.00
2019-04-16T04:45:01.522Z,100.00
2019-04-16T04:47:30.873Z,100.00
2019-04-16T04:50:03.486Z,100.00
2019-04-16T04:52:50.360Z,100.00
2019-04-16T04:55:19.891Z,100.00
2019-04-16T04:57:49.247Z,100.00
2019-04-16T05:06:19.663Z,100.00
2019-04-16T05:08:49.078Z,100.00
2019-04-16T05:11:18.430Z,100.00
2019-04-16T05:13:47.779Z,100.00
2019-04-16T05:16:17.132Z,100.00
2019-04-16T05:18:46.496Z,100.00
2019-04-16T05:21:18.930Z,100.00
2019-04-16T05:23:57.191Z,100.00
2019-04-16T05:26:29.278Z,100.00
2019-04-16T05:32:07.718Z,100.00
2019-04-16T05:34:38.258Z,99.23
2019-04-16T05:37:27.462Z,98.82
2019-04-16T05:39:58.893Z,98.39
2019-04-16T05:42:46.944Z,94.36
2019-04-16T05:45:16.366Z,95.12
2019-04-16T05:47:48.796Z,95.31
2019-04-16T05:50:22.363Z,93.90
2019-04-16T05:52:51.693Z,92.90
2019-04-16T05:58:02.058Z,92.25
2019-04-16T06:00:50.512Z,89.98
2019-04-16T06:03:21.627Z,89.64
2019-04-16T06:05:59.034Z,88.58
2019-04-16T06:08:32.784Z,88.45
2019-04-16T06:11:02.133Z,87.64
2019-04-16T06:19:26.086Z,86.37
2019-04-16T06:22:14.539Z,85.53
2019-04-16T06:25:08.358Z,85.67
2019-04-16T06:33:35.183Z,81.90
2019-04-16T06:36:23.692Z,81.76
2019-04-16T06:39:12.147Z,81.68
2019-04-16T06:42:00.592Z,83.03
2019-04-16T06:44:34.612Z,80.21
2019-04-16T06:47:41.738Z,78.79
2019-04-16T06:50:39.528Z,75.69
2019-04-16T06:53:30.937Z,76.58
2019-04-16T06:56:20.588Z,75.67
2019-04-16T07:02:11.230Z,73.84
2019-04-16T07:05:05.027Z,73.11
2019-04-16T07:11:08.562Z,72.36
2019-04-16T07:13:41.949Z,72.55
2019-04-16T07:16:18.378Z,71.14
2019-04-16T07:18:47.697Z,70.51
2019-04-16T07:21:17.654Z,69.81
2019-04-16T07:23:57.997Z,68.14
2019-04-16T07:26:30.024Z,67.94
2019-04-16T07:34:38.848Z,64.52
2019-04-16T07:37:27.293Z,63.51
2019-04-16T07:40:15.760Z,62.25
2019-04-16T07:43:04.199Z,62.33
2019-04-16T07:45:52.896Z,61.77
2019-04-16T07:48:41.348Z,62.06
2019-04-16T07:54:09.441Z,60.67
2019-04-16T07:59:19.148Z,60.08
2019-04-16T08:01:48.860Z,59.92
2019-04-16T08:04:29.068Z,60.10
2019-04-16T08:07:01.173Z,59.26
2019-04-16T08:09:33.577Z,59.58
2019-04-16T08:12:29.841Z,58.95
2019-04-16T08:14:56.977Z,58.64
2019-04-16T08:17:26.345Z,59.80
2019-04-16T08:19:56.076Z,60.02
2019-04-16T08:28:11.917Z,58.35
2019-04-16T08:30:41.258Z,58.37
2019-04-16T08:33:11.538Z,57.48
2019-04-16T08:36:00.723Z,56.69
2019-04-16T08:38:45.285Z,57.15
2019-04-16T08:41:19.740Z,57.15
2019-04-16T08:43:55.173Z,56.54
2019-04-16T08:46:24.504Z,57.10
2019-04-16T08:48:54.405Z,55.97
2019-04-16T08:51:31.247Z,57.44
2019-04-16T08:54:06.556Z,56.45
2019-04-16T08:56:35.900Z,56.99
2019-04-16T08:59:09.559Z,55.72
2019-04-16T09:01:45.771Z,56.56
2019-04-16T09:04:15.104Z,55.14
2019-04-16T09:06:46.340Z,55.84
2019-04-16T09:09:59.400Z,55.14
2019-04-16T09:12:45.556Z,56.78
2019-04-16T09:15:51.677Z,56.78
2019-04-16T09:18:40.177Z,55.60
2019-04-16T09:21:10.541Z,54.07
2019-04-16T09:32:36.065Z,54.73
2019-04-16T09:35:45.309Z,54.67
2019-04-16T09:38:33.770Z,53.51
2019-04-16T09:46:59.844Z,53.15
2019-04-16T09:50:01.063Z,51.00
2019-04-16T09:52:30.392Z,51.00
2019-04-16T09:54:59.733Z,51.22
2019-04-16T09:57:41.443Z,50.74
2019-04-16T10:00:50.678Z,50.74
2019-04-16T10:05:59.956Z,50.25
2019-04-16T10:08:29.608Z,49.22
2019-04-16T10:11:19.791Z,49.06
2019-04-16T10:13:55.616Z,49.77
2019-04-16T10:19:08.418Z,48.56
2019-04-16T10:21:55.567Z,48.53
2019-04-16T10:24:44.003Z,48.53
2019-04-16T10:30:48.890Z,47.33
2019-04-16T10:33:18.312Z,47.72
2019-04-16T10:35:47.645Z,46.71
2019-04-16T10:38:36.100Z,49.23
2019-04-16T10:44:20.233Z,47.77
2019-04-16T10:47:08.785Z,46.57
2019-04-16T10:49:57.205Z,46.96
2019-04-16T10:52:45.674Z,47.00
2019-04-16T10:55:34.156Z,46.39
2019-04-16T10:58:22.593Z,46.95
2019-04-16T11:01:11.050Z,46.09
2019-04-16T11:03:59.504Z,47.59
2019-04-16T11:09:24.945Z,45.63
2019-04-16T11:11:55.958Z,45.78
2019-04-16T11:14:25.359Z,46.15
2019-04-16T11:16:59.940Z,44.73
2019-04-16T11:19:29.262Z,46.27
2019-04-16T11:21:59.932Z,45.29
2019-04-16T11:24:48.752Z,46.35
2019-04-16T11:27:18.135Z,46.42
2019-04-16T11:29:47.774Z,45.93
2019-04-16T11:32:39.089Z,47.07
2019-04-16T11:35:26.329Z,46.67
2019-04-16T11:37:55.713Z,45.30
2019-04-16T11:40:25.071Z,47.39
2019-04-16T11:42:54.365Z,45.87
2019-04-16T11:45:23.719Z,45.50
2019-04-16T11:47:53.057Z,46.49
2019-04-16T11:50:22.445Z,45.93
2019-04-16T11:52:51.824Z,46.79
2019-04-16T11:55:21.174Z,47.36
2019-04-16T11:57:50.466Z,46.26
2019-04-16T12:00:59.721Z,46.51
2019-04-16T12:06:44.281Z,46.84
2019-04-16T12:09:32.759Z,45.23
2019-04-16T12:17:42.550Z,44.87
2019-04-16T12:20:31.306Z,46.52
2019-04-16T12:23:19.724Z,45.54
2019-04-16T12:26:09.413Z,45.77
2019-04-16T12:29:30.382Z,46.04
2019-04-16T12:35:14.594Z,45.10
2019-04-16T12:38:03.354Z,44.97
2019-04-16T12:40:51.900Z,44.86
2019-04-16T12:43:40.358Z,45.24
2019-04-16T12:49:24.919Z,45.43
2019-04-16T12:52:32.709Z,45.17
2019-04-16T12:55:23.715Z,45.33
2019-04-16T12:58:36.290Z,45.09
2019-04-16T13:01:25.044Z,44.32
2019-04-16T13:04:13.502Z,46.15
2019-04-16T13:07:01.955Z,45.31
2019-04-16T13:09:50.642Z,45.07
2019-04-16T13:15:34.961Z,44.96
2019-04-16T13:18:23.497Z,47.37
2019-04-16T13:21:11.944Z,48.69
2019-04-16T13:24:00.401Z,49.42
2019-04-16T13:26:48.850Z,50.23
2019-04-16T13:31:57.608Z,49.51
2019-04-16T13:34:27.021Z,50.63
2019-04-16T13:36:59.313Z,49.92
2019-04-16T13:40:05.609Z,48.77
2019-04-16T13:42:34.952Z,49.13
2019-04-16T13:48:46.657Z,48.63
2019-04-16T13:51:35.344Z,48.85
2019-04-16T13:54:27.576Z,47.65
2019-04-16T14:00:49.974Z,48.62
2019-04-16T14:06:28.568Z,47.76
2019-04-16T14:08:57.907Z,46.85
2019-04-16T14:11:27.246Z,47.97
2019-04-16T14:13:56.640Z,46.90
2019-04-16T14:16:26.043Z,47.16
2019-04-16T14:18:55.388Z,48.13
2019-04-16T14:21:24.717Z,47.13
2019-04-16T14:23:54.068Z,47.46
2019-04-16T14:26:23.404Z,45.96
2019-04-16T14:28:52.758Z,46.08
2019-04-16T14:34:21.415Z,46.14
2019-04-16T14:36:53.268Z,47.25
2019-04-16T14:40:00.058Z,46.35
2019-04-16T14:42:29.400Z,47.29
2019-04-16T14:45:17.845Z,46.22
2019-04-16T14:47:47.189Z,45.88
2019-04-16T14:50:16.959Z,45.99
2019-04-16T14:52:53.523Z,45.96
2019-04-16T14:55:58.431Z,46.22
2019-04-16T14:58:37.601Z,46.68
2019-04-16T15:01:26.052Z,46.58
2019-04-16T15:04:14.581Z,47.16
2019-04-16T15:07:03.305Z,46.68
2019-04-16T15:15:27.659Z,47.57
2019-04-16T15:18:16.117Z,48.29
2019-04-16T15:27:28.133Z,48.11
2019-04-16T15:33:43.755Z,49.38
2019-04-16T15:36:32.206Z,47.02
2019-04-16T15:42:00.310Z,47.57
2019-04-16T15:44:48.765Z,48.27
2019-04-16T15:47:37.225Z,48.87
2019-04-16T15:56:27.913Z,50.26
2019-04-16T15:59:16.608Z,50.20
2019-04-16T16:02:05.060Z,50.89
2019-04-16T16:04:53.529Z,51.51
2019-04-16T16:07:24.265Z,52.27
2019-04-16T16:12:40.517Z,54.42
2019-04-16T16:15:28.946Z,55.99
2019-04-16T16:18:17.391Z,55.61
2019-04-16T16:21:05.817Z,55.61
2019-04-16T16:23:54.365Z,55.50
2019-04-16T16:26:42.756Z,55.48
2019-04-16T16:29:31.231Z,55.67
2019-04-16T16:32:19.659Z,56.19
2019-04-16T16:35:19.590Z,57.09
2019-04-16T16:38:27.358Z,57.82
2019-04-16T16:41:15.801Z,56.43
2019-04-16T16:44:04.350Z,57.12
2019-04-16T16:47:11.918Z,56.79
2019-04-16T16:49:42.958Z,57.86
2019-04-16T17:01:48.285Z,58.82
2019-04-16T17:07:46.080Z,60.52
2019-04-16T17:10:42.412Z,58.36
2019-04-16T17:13:20.798Z,59.22
2019-04-16T17:15:52.937Z,60.42
2019-04-16T17:18:41.409Z,59.90
2019-04-16T17:21:29.864Z,60.16
2019-04-16T17:24:30.917Z,63.26
2019-04-16T17:27:19.316Z,61.03
2019-04-16T17:33:23.368Z,62.41
2019-04-16T17:36:11.790Z,62.47
2019-04-16T17:39:00.241Z,61.87
2019-04-16T17:42:07.807Z,63.78
2019-04-16T17:45:15.388Z,64.35
2019-04-16T17:48:42.280Z,64.83
2019-04-16T17:51:49.857Z,62.66
2019-04-16T17:54:57.493Z,63.11
2019-04-16T17:58:16.930Z,65.07
2019-04-16T18:01:28.151Z,65.07
2019-04-16T18:04:36.028Z,64.39
2019-04-16T18:07:44.142Z,66.21
2019-04-16T18:13:42.981Z,67.59
2019-04-16T18:16:54.120Z,67.59
2019-04-16T18:26:12.344Z,70.36
2019-04-16T18:32:34.865Z,71.98
2019-04-16T18:35:42.648Z,71.98
2019-04-16T18:38:50.513Z,70.95
2019-04-16T18:41:58.278Z,70.95
2019-04-16T18:50:46.118Z,71.12
2019-04-16T18:53:34.783Z,72.33
2019-04-16T18:56:23.447Z,75.30
2019-04-16T18:59:12.165Z,75.83
2019-04-16T19:05:21.829Z,76.46
2019-04-16T19:08:10.572Z,78.31
2019-04-16T19:11:20.411Z,78.86
2019-04-16T19:14:10.174Z,78.86
2019-04-16T19:16:45.715Z,76.74
2019-04-16T19:19:34.414Z,76.08
2019-04-16T19:22:23.482Z,76.08
2019-04-16T19:25:12.168Z,76.94
2019-04-16T19:31:29.388Z,79.86
2019-04-16T19:34:18.538Z,80.76
2019-04-16T19:37:07.292Z,82.37
2019-04-16T19:39:55.953Z,83.54
2019-04-16T19:42:44.629Z,84.84
2019-04-16T19:45:33.295Z,87.82
2019-04-16T19:48:34.594Z,87.82
2019-04-16T19:50:58.718Z,87.53
2019-04-16T19:53:48.437Z,89.69
2019-04-16T19:56:37.767Z,89.69
2019-04-16T19:59:39.094Z,90.75
2019-04-16T20:02:40.021Z,90.54
2019-04-16T20:05:29.047Z,91.32
2019-04-16T20:08:05.351Z,91.32
2019-04-16T20:11:13.370Z,91.83
2019-04-16T20:14:03.522Z,91.83
2019-04-16T20:16:38.811Z,93.19
2019-04-16T20:19:27.468Z,93.46
2019-04-16T20:22:16.144Z,93.39
2019-04-16T20:25:24.148Z,93.85
2019-04-16T20:28:15.275Z,93.65
2019-04-16T20:31:04.306Z,93.85
2019-04-16T20:33:38.887Z,93.85
2019-04-16T20:36:27.656Z,93.87
2019-04-16T20:39:16.291Z,94.45
2019-04-16T20:42:04.968Z,94.94
2019-04-16T20:44:53.561Z,94.49
2019-04-16T20:48:01.487Z,95.75
2019-04-16T20:50:52.927Z,95.75
2019-04-16T20:53:26.710Z,95.24
2019-04-16T20:56:19.962Z,96.40
2019-04-16T20:59:05.745Z,96.40
2019-04-16T21:01:58.324Z,97.03
2019-04-16T21:04:46.754Z,97.03
2019-04-16T21:07:35.196Z,97.05
2019-04-16T21:10:42.964Z,97.31
2019-04-16T21:13:31.413Z,97.31
2019-04-16T21:16:39.169Z,97.80
2019-04-16T21:19:47.786Z,99.42
2019-04-16T21:22:36.853Z,99.70
2019-04-16T21:25:25.316Z,100.00
2019-04-16T21:31:28.639Z,100.00
2019-04-16T21:34:36.522Z,100.00
2019-04-16T21:37:56.680Z,100.00
2019-04-16T21:40:45.115Z,100.00
2019-04-16T21:43:35.722Z,100.00
2019-04-16T21:46:23.681Z,100.00
2019-04-16T21:49:12.462Z,100.00
2019-04-16T21:52:23.072Z,100.00
2019-04-16T21:55:16.325Z,100.00
2019-04-16T21:58:04.757Z,100.00
2019-04-16T22:01:12.392Z,100.00
2019-04-16T22:06:56.300Z,100.00
2019-04-16T22:09:44.733Z,100.00
2019-04-16T22:12:33.193Z,100.00
2019-04-16T22:15:25.153Z,100.00
2019-04-16T22:18:11.756Z,100.00
2019-04-16T22:21:00.245Z,100.00
2019-04-16T22:23:50.422Z,100.00
2019-04-16T22:26:44.657Z,100.00
2019-04-16T22:29:33.108Z,100.00
2019-04-16T22:32:21.539Z,100.00
2019-04-16T22:35:10.097Z,100.00
2019-04-16T22:37:58.520Z,100.00
2019-04-16T22:41:06.312Z,100.00
2019-04-16T22:44:13.790Z,100.00
2019-04-16T22:50:14.358Z,100.00
2019-04-16T22:52:34.542Z,100.00
2019-04-16T22:55:24.949Z,100.00
2019-04-16T22:58:32.620Z,100.00
2019-04-16T23:01:09.021Z,100.00
2019-04-16T23:03:57.459Z,100.00
2019-04-16T23:06:58.511Z,100.00
2019-04-16T23:09:48.677Z,100.00
2019-04-16T23:12:27.175Z,100.00
2019-04-16T23:15:00.353Z,100.00
2019-04-16T23:17:48.803Z,100.00
2019-04-16T23:20:37.237Z,100.00
2019-04-16T23:23:25.920Z,100.00
2019-04-16T23:26:14.350Z,100.00
2019-04-16T23:29:02.866Z,100.00
2019-04-16T23:31:55.250Z,100.00
2019-04-16T23:34:27.499Z,100.00
2019-04-16T23:37:16.012Z,100.00
2019-04-16T23:40:44.784Z,100.00
2019-04-16T23:43:53.491Z,100.00
2019-04-16T23:46:48.538Z,100.00
2019-04-16T23:49:56.082Z,100.00
2019-04-16T23:53:06.800Z,100.00
2019-04-16T23:55:59.966Z,100.00
